Pleasant Hill, Iowa
Current Conditions -  °F | °C
As of 11:54 PM on Tuesday 21 Oct 2014 (Local Time) from KDSM Reporting Station
Clear Clear  
Wind Chill: 52°   Ceiling: Unl
Heat Index: 52°   Visibility: 10mi
Dew Point: 40°   Wind: 10mph
Humidity: 63%   Direction: 130°SE
Pressure: 30.17"   Gusts: NA
Location:  41.5827°N, 93.4933°W
Report Text: KDSM 220454Z 13009KT 10SM CLR 11/04 A3017 RMK AO2 SLP217 T01110044
Loading
Personal Weather Stations






























Interactive Weather Map
Tropical Storm Tracking
New forecast layout! Learn more

10-Day Weather Forecast

Advertisements
Track Severe Weather on mobile